Time;durP1;ratioP1;P1;durP2;ratioP2;P2;SDS_P1;SDS_P2;PMS_P1;PMS_P2;Temp;Humidity;BMP_temperature;BMP_pressure;BME280_temperature;BME280_humidity;BME280_pressure;Samples;Min_cycle;Max_cycle;Signal;HPM_P1;HPM_P2
2022/06/16 00:01:41;;;;;;;1.77;1.67;;;25.80;54.30;;;;;;5103885;27;20546;-48
2022/06/16 00:04:24;;;;;;;1.50;1.40;;;25.80;54.10;;;;;;5068997;28;20556;-48
2022/06/16 00:07:05;;;;;;;1.67;1.50;;;25.80;54.40;;;;;;5128820;27;20517;-47
2022/06/16 00:09:46;;;;;;;1.97;1.80;;;25.80;54.10;;;;;;5082057;27;20594;-47
2022/06/16 00:12:25;;;;;;;3.43;1.67;;;25.80;54.10;;;;;;5086512;28;20532;-47
2022/06/16 00:15:08;;;;;;;3.23;1.93;;;25.80;54.30;;;;;;5098778;27;20601;-48
2022/06/16 00:17:50;;;;;;;1.70;1.60;;;25.80;54.40;;;;;;5107710;27;20515;-48
2022/06/16 00:20:31;;;;;;;1.70;1.60;;;25.80;54.40;;;;;;5088301;27;20968;-47
2022/06/16 00:23:13;;;;;;;1.77;1.67;;;25.80;54.40;;;;;;5078551;27;20536;-48
2022/06/16 00:25:54;;;;;;;1.93;1.83;;;25.80;54.40;;;;;;5068168;27;20545;-47
2022/06/16 00:28:35;;;;;;;2.03;1.83;;;25.80;54.40;;;;;;5085985;28;20524;-49
2022/06/16 00:31:20;;;;;;;1.60;1.50;;;25.80;55.50;;;;;;5099942;27;20547;-48
2022/06/16 00:34:00;;;;;;;1.83;1.73;;;25.80;54.20;;;;;;5078325;28;20565;-48
2022/06/16 00:36:41;;;;;;;3.23;2.13;;;25.80;54.00;;;;;;5085694;28;20532;-49
2022/06/16 00:39:21;;;;;;;2.05;1.85;;;25.80;53.90;;;;;;5132706;27;1206068;-48
2022/06/16 00:42:09;;;;;;;2.17;2.07;;;25.80;54.10;;;;;;5108476;27;20526;-48
2022/06/16 00:44:52;;;;;;;2.00;1.77;;;25.80;54.10;;;;;;5069521;27;20958;-48
2022/06/16 00:47:32;;;;;;;2.10;1.93;;;25.80;54.20;;;;;;5127895;27;20574;-48
2022/06/16 00:50:13;;;;;;;2.63;2.00;;;25.80;53.90;;;;;;5070554;28;20546;-48
2022/06/16 00:52:54;;;;;;;2.60;1.87;;;25.80;53.90;;;;;;5126108;27;20541;-48
2022/06/16 00:55:36;;;;;;;3.33;2.03;;;25.80;54.00;;;;;;5093620;27;20954;-48
2022/06/16 00:58:15;;;;;;;2.00;1.90;;;25.80;54.00;;;;;;5135499;27;1199099;-48
2022/06/16 01:00:56;;;;;;;1.70;1.60;;;25.80;54.20;;;;;;5042361;27;20878;-48
2022/06/16 01:06:41;;;;;;;1.93;1.80;;;25.80;54.00;;;;;;5094582;27;20526;-47
2022/06/16 01:09:25;;;;;;;2.00;1.90;;;25.80;54.10;;;;;;5075046;27;20589;-49
2022/06/16 01:15:29;;;;;;;1.80;1.70;;;25.80;54.30;;;;;;5070154;27;20554;-48
2022/06/16 01:18:17;;;;;;;2.47;2.00;;;25.80;53.90;;;;;;5090666;27;20527;-48
2022/06/16 01:21:04;;;;;;;2.43;1.83;;;25.80;53.90;;;;;;5070567;27;20545;-47
2022/06/16 01:24:25;;;;;;;2.73;2.10;;;25.70;54.00;;;;;;5089678;27;20578;-48
2022/06/16 01:27:27;;;;;;;2.80;2.20;;;25.70;54.00;;;;;;5088055;28;20528;-48
2022/06/16 01:30:12;;;;;;;1.90;1.80;;;25.80;54.20;;;;;;5053169;28;20549;-46
2022/06/16 01:33:03;;;;;;;4.33;2.27;;;25.70;54.40;;;;;;5098847;27;20522;-48
2022/06/16 01:35:58;;;;;;;1.90;1.80;;;25.70;54.30;;;;;;5051439;27;20965;-48
2022/06/16 01:38:46;;;;;;;1.80;1.70;;;25.70;54.30;;;;;;5070252;28;20541;-47
2022/06/16 01:41:33;;;;;;;1.93;1.83;;;25.70;54.20;;;;;;5071942;28;21043;-49
2022/06/16 01:44:23;;;;;;;2.13;2.03;;;25.70;54.30;;;;;;5073763;27;20541;-48
2022/06/16 01:47:14;;;;;;;1.80;1.70;;;25.70;54.40;;;;;;5111854;27;20533;-48
2022/06/16 01:50:00;;;;;;;2.17;2.07;;;25.70;54.20;;;;;;5096606;27;21143;-47
2022/06/16 01:52:48;;;;;;;2.67;2.07;;;25.70;54.10;;;;;;5104221;27;20530;-48
2022/06/16 01:55:38;;;;;;;2.07;1.97;;;25.70;54.00;;;;;;5055839;28;20549;-48
2022/06/16 01:58:23;;;;;;;2.53;2.20;;;25.70;54.10;;;;;;5070670;28;20934;-49
2022/06/16 02:01:08;;;;;;;1.70;1.60;;;25.70;54.30;;;;;;5059347;27;21087;-48
2022/06/16 02:03:55;;;;;;;2.17;1.97;;;25.70;54.40;;;;;;5127616;27;20528;-47
2022/06/16 02:06:37;;;;;;;2.10;2.00;;;25.70;54.40;;;;;;5152153;22;1196884;-50
2022/06/16 02:09:27;;;;;;;3.03;1.40;;;25.70;54.30;;;;;;5125692;27;20533;-49
2022/06/16 02:12:55;;;;;;;2.20;1.77;;;25.70;54.30;;;;;;5146551;27;20860;-48
2022/06/16 02:15:30;;;;;;;2.33;2.13;;;25.70;54.30;;;;;;5107046;27;20609;-49
2022/06/16 02:18:18;;;;;;;2.10;1.93;;;25.70;54.40;;;;;;5143459;27;1227992;-47
2022/06/16 02:21:06;;;;;;;1.80;1.70;;;25.70;54.40;;;;;;5075583;27;20587;-48
2022/06/16 02:23:48;;;;;;;1.57;1.47;;;25.70;54.40;;;;;;5086552;28;21114;-46
2022/06/16 02:26:29;;;;;;;2.80;2.00;;;25.70;54.30;;;;;;5133527;27;20536;-49
2022/06/16 02:29:25;;;;;;;2.70;2.23;;;25.70;54.40;;;;;;5083712;28;20532;-48
2022/06/16 02:32:35;;;;;;;1.87;1.63;;;25.70;54.30;;;;;;5085672;27;20551;-51
2022/06/16 02:35:35;;;;;;;2.23;2.03;;;25.70;54.30;;;;;;5127641;27;20577;-49
2022/06/16 02:38:31;;;;;;;1.63;1.47;;;25.70;54.40;;;;;;5082929;27;20578;-48
2022/06/16 02:41:21;;;;;;;1.70;1.60;;;25.70;54.40;;;;;;5076675;27;21125;-48
2022/06/16 02:44:10;;;;;;;2.30;2.17;;;25.70;54.40;;;;;;5064795;28;20540;-49
2022/06/16 02:47:00;;;;;;;1.93;1.83;;;25.70;54.60;;;;;;5104008;27;20533;-47
2022/06/16 02:49:49;;;;;;;2.87;2.10;;;25.70;54.40;;;;;;5116754;27;20523;-47
2022/06/16 02:52:35;;;;;;;1.70;1.60;;;25.70;54.40;;;;;;5128458;27;20525;-50
2022/06/16 02:55:22;;;;;;;2.20;2.00;;;25.60;54.30;;;;;;5096092;27;20550;-50
2022/06/16 02:58:08;;;;;;;2.07;1.83;;;25.60;54.30;;;;;;5083309;27;20523;-48
2022/06/16 03:00:57;;;;;;;1.97;1.83;;;25.60;54.30;;;;;;5032151;27;20559;-49
2022/06/16 03:03:39;;;;;;;2.60;2.40;;;25.60;54.30;;;;;;5123249;27;20542;-47
2022/06/16 03:06:25;;;;;;;1.87;1.77;;;25.60;54.30;;;;;;5086808;27;20578;-49
2022/06/16 03:09:06;;;;;;;1.80;1.70;;;25.60;54.30;;;;;;5101530;27;20534;-49
2022/06/16 03:11:47;;;;;;;2.40;1.67;;;25.60;54.30;;;;;;5087776;28;20524;-49
2022/06/16 03:14:27;;;;;;;2.00;1.90;;;25.60;54.30;;;;;;5067816;28;20555;-49
2022/06/16 03:17:10;;;;;;;2.03;1.73;;;25.60;54.30;;;;;;5080948;28;20548;-49
2022/06/16 03:19:53;;;;;;;1.80;1.70;;;25.60;54.30;;;;;;5065045;27;20580;-47
2022/06/16 03:22:35;;;;;;;2.57;2.00;;;25.60;54.30;;;;;;5127998;27;20514;-47
2022/06/16 03:25:16;;;;;;;2.33;2.10;;;25.60;54.30;;;;;;5057990;28;20546;-49
2022/06/16 03:27:58;;;;;;;3.13;2.00;;;25.60;54.30;;;;;;5136347;27;20525;-49
2022/06/16 03:30:44;;;;;;;2.40;2.20;;;25.60;54.30;;;;;;5050287;28;20959;-50
2022/06/16 03:33:27;;;;;;;2.57;2.33;;;25.50;54.30;;;;;;5087502;28;20929;-48
2022/06/16 03:36:08;;;;;;;2.80;2.10;;;25.50;54.30;;;;;;5068920;27;20975;-50
2022/06/16 03:38:49;;;;;;;4.43;2.00;;;25.50;54.30;;;;;;5080994;28;21117;-50
2022/06/16 03:41:43;;;;;;;2.00;1.90;;;25.50;54.40;;;;;;5088659;28;20552;-73
2022/06/16 03:44:23;;;;;;;2.00;1.80;;;25.50;54.50;;;;;;5073582;28;20548;-48
2022/06/16 03:47:05;;;;;;;2.33;1.50;;;25.50;54.40;;;;;;5066874;28;20627;-47
2022/06/16 03:49:52;;;;;;;2.70;1.67;;;25.50;54.60;;;;;;5117908;27;20534;-49
2022/06/16 03:52:34;;;;;;;2.03;1.93;;;25.50;54.50;;;;;;5128194;27;20598;-51
2022/06/16 03:55:15;;;;;;;2.23;2.00;;;25.50;54.50;;;;;;5052358;28;20544;-49
2022/06/16 03:57:57;;;;;;;2.17;2.00;;;25.50;54.30;;;;;;5118857;27;20584;-49
2022/06/16 04:00:41;;;;;;;1.73;1.63;;;25.50;54.30;;;;;;5065183;27;20546;-49
2022/06/16 04:06:24;;;;;;;2.47;2.27;;;25.50;54.30;;;;;;5086884;27;20544;-49
2022/06/16 04:09:06;;;;;;;2.23;2.03;;;25.50;54.30;;;;;;5104646;27;20588;-51
2022/06/16 04:11:49;;;;;;;2.47;2.27;;;25.50;54.30;;;;;;5087255;28;20527;-49
2022/06/16 04:14:32;;;;;;;2.53;1.73;;;25.50;54.30;;;;;;5111314;27;20581;-51
2022/06/16 04:17:16;;;;;;;2.40;2.13;;;25.50;54.30;;;;;;5086632;28;20519;-49
2022/06/16 04:20:14;;;;;;;2.00;1.90;;;25.40;54.30;;;;;;5118358;27;20655;-50
2022/06/16 04:23:30;;;;;;;2.10;1.93;;;25.40;54.50;;;;;;5063694;27;20598;-48
2022/06/16 04:26:12;;;;;;;2.37;2.17;;;25.40;54.40;;;;;;5073551;27;20591;-48
2022/06/16 04:28:58;;;;;;;2.60;1.90;;;25.40;54.50;;;;;;5147217;27;21042;-51
2022/06/16 04:31:40;;;;;;;1.80;1.70;;;25.40;54.50;;;;;;5078957;28;21049;-47
2022/06/16 04:34:21;;;;;;;3.37;2.20;;;25.40;54.60;;;;;;5119949;27;20521;-49
2022/06/16 04:37:02;;;;;;;1.83;1.73;;;25.40;54.70;;;;;;5119168;27;20578;-50
2022/06/16 04:39:43;;;;;;;2.93;1.80;;;25.40;54.60;;;;;;5068821;28;20539;-48
2022/06/16 04:42:24;;;;;;;2.40;2.03;;;25.40;54.50;;;;;;5087932;28;20527;-48
2022/06/16 04:45:05;;;;;;;2.57;2.20;;;25.40;54.40;;;;;;5091185;27;20684;-49
2022/06/16 04:47:46;;;;;;;2.27;2.10;;;25.40;54.50;;;;;;5087534;28;21090;-50
2022/06/16 04:50:27;;;;;;;2.03;1.93;;;25.40;54.50;;;;;;5068057;27;21069;-49
2022/06/16 04:53:09;;;;;;;3.07;2.17;;;25.40;54.50;;;;;;5176287;27;20523;-49
2022/06/16 04:56:08;;;;;;;1.93;1.73;;;25.40;54.50;;;;;;5071481;28;20533;-72
2022/06/16 04:59:02;;;;;;;3.13;1.93;;;25.40;54.60;;;;;;5118270;27;20649;-43
2022/06/16 05:01:48;;;;;;;2.10;1.90;;;25.40;54.40;;;;;;5080266;27;20609;-48
2022/06/16 05:04:55;;;;;;;2.67;2.00;;;25.40;54.50;;;;;;5049650;28;21072;-49
2022/06/16 05:08:06;;;;;;;1.90;1.80;;;25.40;54.40;;;;;;5107304;27;20580;-47
2022/06/16 05:11:06;;;;;;;2.70;1.90;;;25.40;54.50;;;;;;5083563;27;20973;-48
2022/06/16 05:14:20;;;;;;;2.20;1.97;;;25.40;54.60;;;;;;5114480;27;20836;-47
2022/06/16 05:17:30;;;;;;;2.10;2.00;;;25.40;54.60;;;;;;5107461;27;20518;-48
2022/06/16 05:20:46;;;;;;;2.07;1.97;;;25.40;54.70;;;;;;5120601;27;20546;-48
2022/06/16 05:23:32;;;;;;;1.90;1.80;;;25.40;54.70;;;;;;5121745;27;21012;-51
2022/06/16 05:26:39;;;;;;;1.93;1.83;;;25.40;54.80;;;;;;5087361;28;20536;-48
2022/06/16 05:29:40;;;;;;;3.30;2.30;;;25.40;54.70;;;;;;5121711;27;20639;-51
2022/06/16 05:32:52;;;;;;;3.17;2.17;;;25.30;54.40;;;;;;5086575;28;20531;-49
2022/06/16 05:35:58;;;;;;;2.00;1.90;;;25.40;54.50;;;;;;5065878;28;20685;-50
2022/06/16 05:39:04;;;;;;;2.70;1.80;;;25.30;54.20;;;;;;5070946;28;20591;-48
2022/06/16 05:41:55;;;;;;;2.00;1.90;;;25.40;54.10;;;;;;5086970;28;20918;-49
2022/06/16 05:44:59;;;;;;;2.40;1.70;;;25.40;54.20;;;;;;5055480;28;21036;-49
2022/06/16 05:47:58;;;;;;;2.20;2.10;;;25.40;54.20;;;;;;5083377;28;20529;-48
2022/06/16 05:50:43;;;;;;;1.80;1.70;;;25.40;54.30;;;;;;5063811;28;20942;-49
2022/06/16 05:53:24;;;;;;;2.67;1.63;;;25.40;54.10;;;;;;5087777;27;21034;-47
2022/06/16 05:56:06;;;;;;;2.10;1.90;;;25.40;54.20;;;;;;5073919;27;20610;-48
2022/06/16 05:58:50;;;;;;;2.80;2.17;;;25.40;54.20;;;;;;5084880;28;20531;-48
2022/06/16 06:01:32;;;;;;;2.50;1.83;;;25.40;54.10;;;;;;5082637;28;21062;-49
2022/06/16 06:04:19;;;;;;;2.23;2.03;;;25.40;54.20;;;;;;5076314;28;20540;-49
2022/06/16 06:07:07;;;;;;;2.33;1.90;;;25.40;54.20;;;;;;5128654;27;20521;-50
2022/06/16 06:18:42;;;;;;;2.53;2.20;;;25.40;54.20;;;;;;5086490;28;20524;-48
2022/06/16 06:24:20;;;;;;;2.27;2.10;;;25.40;54.10;;;;;;5079886;28;20590;-49
2022/06/16 06:27:02;;;;;;;2.20;2.00;;;25.40;54.20;;;;;;5118417;27;20653;-50
2022/06/16 06:29:43;;;;;;;1.87;1.77;;;25.40;54.20;;;;;;5068733;27;20596;-50
2022/06/16 06:32:25;;;;;;;2.40;2.30;;;25.40;54.20;;;;;;5093247;28;20579;-50
2022/06/16 06:35:06;;;;;;;2.40;2.20;;;25.40;54.20;;;;;;5094205;27;20555;-48
2022/06/16 06:37:47;;;;;;;1.80;1.70;;;25.40;54.00;;;;;;5069615;28;20870;-49
2022/06/16 06:40:33;;;;;;;2.27;1.60;;;25.30;54.10;;;;;;5065944;27;20536;-47
2022/06/16 06:43:14;;;;;;;2.03;1.93;;;25.30;54.00;;;;;;5086124;28;21111;-49
2022/06/16 06:45:56;;;;;;;2.33;2.13;;;25.30;54.10;;;;;;5071858;27;20627;-52
2022/06/16 06:48:37;;;;;;;2.07;1.87;;;25.30;54.00;;;;;;5107435;27;20561;-48
2022/06/16 06:51:18;;;;;;;2.43;2.23;;;25.30;54.10;;;;;;5071554;27;21059;-48
2022/06/16 06:53:59;;;;;;;2.60;2.40;;;25.40;54.30;;;;;;5100863;27;20625;-49
2022/06/16 06:56:40;;;;;;;2.50;2.33;;;25.30;54.00;;;;;;5084090;28;20551;-48
2022/06/16 06:59:21;;;;;;;1.60;1.50;;;25.30;53.80;;;;;;5079927;27;21109;-48
2022/06/16 07:02:03;;;;;;;2.00;1.70;;;25.30;54.10;;;;;;5063597;28;20569;-49
2022/06/16 07:04:44;;;;;;;3.43;2.07;;;25.30;54.00;;;;;;5099435;27;20574;-50
2022/06/16 07:07:26;;;;;;;2.67;2.20;;;25.30;53.90;;;;;;5086519;28;20523;-47
2022/06/16 07:10:09;;;;;;;2.00;1.90;;;25.30;53.60;;;;;;5079513;27;21099;-49
2022/06/16 07:12:51;;;;;;;2.10;2.00;;;25.30;54.10;;;;;;5087417;27;20523;-49
2022/06/16 07:15:31;;;;;;;1.90;1.80;;;25.30;53.50;;;;;;5055766;28;20555;-49
2022/06/16 07:18:13;;;;;;;2.33;2.13;;;25.30;53.20;;;;;;5086821;28;20582;-49
2022/06/16 07:20:54;;;;;;;2.20;2.00;;;25.30;53.60;;;;;;5058994;28;20753;-48
2022/06/16 07:23:35;;;;;;;2.10;1.90;;;25.30;53.30;;;;;;5081554;28;20958;-48
2022/06/16 07:26:15;;;;;;;2.37;2.03;;;25.30;52.60;;;;;;5088731;27;21143;-47
2022/06/16 07:28:59;;;;;;;1.93;1.83;;;25.30;52.50;;;;;;5086574;28;20629;-49
2022/06/16 07:31:39;;;;;;;3.17;2.70;;;25.30;52.40;;;;;;5079965;27;20585;-49
2022/06/16 07:34:19;;;;;;;2.50;2.30;;;25.30;52.50;;;;;;5079321;27;20537;-48
2022/06/16 07:36:59;;;;;;;2.93;2.57;;;25.30;52.00;;;;;;5087706;27;20516;-49
2022/06/16 07:39:41;;;;;;;2.27;2.10;;;25.30;51.80;;;;;;5067151;28;20531;-50
2022/06/16 07:42:22;;;;;;;2.27;2.07;;;25.30;53.00;;;;;;5128470;27;21103;-49
2022/06/16 07:45:04;;;;;;;2.27;1.90;;;25.30;53.50;;;;;;5066603;27;20618;-49
2022/06/16 07:47:45;;;;;;;2.10;1.90;;;25.30;53.50;;;;;;5128183;27;21047;-48
2022/06/16 07:50:27;;;;;;;2.63;1.80;;;25.30;52.90;;;;;;5108120;27;20589;-49
2022/06/16 07:53:08;;;;;;;2.87;1.70;;;25.30;53.10;;;;;;5126428;27;20569;-48
2022/06/16 07:55:49;;;;;;;2.37;2.17;;;25.30;53.80;;;;;;5071193;28;20590;-49
2022/06/16 07:58:32;;;;;;;1.90;1.80;;;25.30;53.50;;;;;;5128243;27;20593;-49
2022/06/16 08:01:14;;;;;;;2.30;1.73;;;25.30;53.90;;;;;;5061677;27;20552;-49
2022/06/16 08:03:55;;;;;;;2.00;1.90;;;25.30;54.00;;;;;;5135168;27;20532;-50
2022/06/16 08:06:38;;;;;;;2.17;1.97;;;25.30;54.00;;;;;;5087574;28;20516;-48
2022/06/16 08:09:19;;;;;;;2.10;1.83;;;25.30;54.10;;;;;;5074203;28;20654;-49
2022/06/16 08:12:04;;;;;;;1.50;1.40;;;25.30;54.00;;;;;;5061026;28;20559;-51
2022/06/16 08:14:47;;;;;;;1.63;1.53;;;25.30;54.00;;;;;;5095340;27;20591;-49
2022/06/16 08:17:31;;;;;;;1.97;1.87;;;25.30;54.00;;;;;;5108136;27;20522;-49
2022/06/16 08:20:12;;;;;;;2.17;1.53;;;25.30;54.10;;;;;;5114493;27;20890;-50
2022/06/16 08:22:53;;;;;;;1.90;1.80;;;25.30;54.10;;;;;;5085994;28;21026;-49
2022/06/16 08:25:35;;;;;;;2.20;1.77;;;25.30;54.10;;;;;;5095375;27;20617;-49
2022/06/16 08:28:19;;;;;;;1.63;1.53;;;25.20;54.30;;;;;;5127247;27;20598;-49
2022/06/16 08:30:59;;;;;;;1.90;1.80;;;25.20;54.40;;;;;;5067620;27;20898;-48
2022/06/16 08:33:41;;;;;;;1.77;1.67;;;25.30;54.50;;;;;;5083083;27;20546;-49
2022/06/16 08:36:22;;;;;;;1.80;1.70;;;25.20;54.40;;;;;;5068276;28;20541;-51
2022/06/16 08:39:04;;;;;;;2.07;1.90;;;25.20;54.50;;;;;;5123724;27;20576;-49
2022/06/16 08:41:49;;;;;;;2.20;1.90;;;25.20;54.50;;;;;;5128889;27;20609;-49
2022/06/16 08:44:44;;;;;;;1.87;1.77;;;25.20;54.40;;;;;;5076379;27;20651;-46
2022/06/16 08:47:36;;;;;;;1.57;1.40;;;25.20;54.30;;;;;;5108419;27;20567;-48
2022/06/16 08:50:30;;;;;;;2.90;2.23;;;25.20;54.20;;;;;;5088003;27;20559;-47
2022/06/16 08:53:23;;;;;;;2.07;1.97;;;25.20;54.00;;;;;;5104746;27;20529;-48
2022/06/16 08:59:20;;;;;;;2.10;2.00;;;25.20;54.10;;;;;;5025543;28;20502;-49
2022/06/16 09:02:06;;;;;;;1.60;1.50;;;25.20;54.40;;;;;;5045919;28;20944;-48
2022/06/16 09:04:51;;;;;;;3.07;2.07;;;25.20;54.30;;;;;;5054665;28;20578;-47
2022/06/16 09:07:57;;;;;;;2.87;2.50;;;25.20;54.00;;;;;;5081108;28;20852;-49
2022/06/16 09:10:44;;;;;;;9.60;2.70;;;25.10;49.40;;;;;;5042788;28;20573;-49
2022/06/16 09:13:52;;;;;;;4.07;2.30;;;25.10;50.60;;;;;;5124350;27;20653;-50
2022/06/16 09:16:45;;;;;;;3.43;2.30;;;25.10;50.70;;;;;;5127858;27;20580;-48
2022/06/16 09:19:49;;;;;;;4.47;2.40;;;25.10;50.80;;;;;;5080406;27;20631;-50
2022/06/16 09:22:56;;;;;;;6.77;2.70;;;25.10;51.40;;;;;;5128482;27;20508;-49
2022/06/16 09:25:58;;;;;;;6.23;2.30;;;25.10;50.40;;;;;;5038174;28;20577;-51
2022/06/16 09:28:45;;;;;;;4.33;2.17;;;25.20;51.20;;;;;;5084376;27;20676;-50
2022/06/16 09:31:31;;;;;;;7.13;2.70;;;25.20;51.20;;;;;;5054310;27;20467;-49
2022/06/16 09:34:19;;;;;;;3.73;2.10;;;25.20;50.10;;;;;;5073970;28;20948;-50
2022/06/16 09:37:04;;;;;;;2.07;1.90;;;25.20;50.50;;;;;;5089737;27;20997;-50
2022/06/16 09:39:49;;;;;;;3.47;2.10;;;25.20;51.20;;;;;;5077119;27;20472;-50
2022/06/16 09:42:36;;;;;;;3.30;1.93;;;25.20;50.50;;;;;;5099349;27;20537;-50
2022/06/16 09:45:21;;;;;;;2.57;2.10;;;25.20;49.70;;;;;;5123117;27;1232234;-49
2022/06/16 09:48:09;;;;;;;7.97;2.57;;;25.20;50.00;;;;;;5118251;27;20931;-51
2022/06/16 09:50:56;;;;;;;3.03;2.43;;;25.20;50.00;;;;;;5043654;27;20551;-48
2022/06/16 09:53:41;;;;;;;2.30;1.80;;;25.30;50.20;;;;;;5122909;27;20589;-48
2022/06/16 09:56:27;;;;;;;6.33;2.13;;;25.30;48.80;;;;;;5068910;27;20559;-49
2022/06/16 09:59:11;;;;;;;3.50;2.40;;;25.20;47.80;;;;;;5078567;28;20533;-49
2022/06/16 10:01:58;;;;;;;4.43;2.60;;;25.20;47.50;;;;;;5074548;27;21121;-49
2022/06/16 10:04:38;;;;;;;3.43;2.03;;;25.20;49.00;;;;;;5095901;27;20548;-50
2022/06/16 10:07:24;;;;;;;2.90;2.37;;;25.20;49.10;;;;;;5087588;28;20520;-48
2022/06/16 10:10:11;;;;;;;3.03;2.07;;;25.20;49.00;;;;;;5088986;27;20533;-48
2022/06/16 10:12:59;;;;;;;2.00;1.63;;;25.20;48.60;;;;;;5135452;27;20585;-47
2022/06/16 10:15:44;;;;;;;2.60;2.40;;;25.20;48.90;;;;;;5061170;27;20551;-49
2022/06/16 10:18:24;;;;;;;2.40;1.80;;;25.20;49.70;;;;;;5082878;27;20525;-49
2022/06/16 10:21:07;;;;;;;1.97;1.80;;;25.20;50.00;;;;;;5054566;27;20554;-49
2022/06/16 10:23:52;;;;;;;2.13;1.60;;;25.20;50.00;;;;;;5082159;28;20547;-49
2022/06/16 10:26:34;;;;;;;2.00;1.90;;;25.20;50.10;;;;;;5068286;27;20541;-49
2022/06/16 10:29:26;;;;;;;2.73;1.90;;;25.20;50.00;;;;;;5083233;27;20533;-48
2022/06/16 10:32:17;;;;;;;2.43;1.90;;;25.20;50.00;;;;;;5132397;27;20602;-49
2022/06/16 10:35:00;;;;;;;4.10;1.97;;;25.20;49.70;;;;;;5119092;27;20608;-50
2022/06/16 10:37:43;;;;;;;2.20;1.97;;;25.20;50.20;;;;;;5131798;27;20520;-49
2022/06/16 10:40:30;;;;;;;2.40;2.10;;;25.20;49.40;;;;;;5053436;27;20548;-50
2022/06/16 10:43:37;;;;;;;2.03;1.90;;;25.20;49.60;;;;;;5128983;27;20533;-48
2022/06/16 10:46:22;;;;;;;2.00;1.77;;;25.20;49.80;;;;;;5061401;27;21146;-48
2022/06/16 10:49:07;;;;;;;2.47;1.90;;;25.20;50.40;;;;;;5087655;28;20927;-49
2022/06/16 10:51:53;;;;;;;2.33;2.13;;;25.20;50.30;;;;;;5121670;27;20545;-49
2022/06/16 10:54:36;;;;;;;1.83;1.60;;;25.20;50.40;;;;;;5064224;27;20541;-48
2022/06/16 10:57:23;;;;;;;4.57;1.77;;;25.20;50.20;;;;;;5176414;27;20626;-48
2022/06/16 11:00:12;;;;;;;1.50;1.40;;;25.20;50.30;;;;;;5067141;28;20548;-48
2022/06/16 11:02:59;;;;;;;1.60;1.50;;;25.30;50.50;;;;;;5087845;28;20516;-48
2022/06/16 11:05:51;;;;;;;1.83;1.20;;;25.30;49.80;;;;;;5087922;27;20573;-50
2022/06/16 11:08:37;;;;;;;1.70;1.60;;;25.30;49.10;;;;;;5063495;28;20579;-48
2022/06/16 11:11:53;;;;;;;2.00;1.50;;;25.30;49.40;;;;;;5064546;27;20824;-50
2022/06/16 11:14:37;;;;;;;2.07;1.73;;;25.30;48.50;;;;;;5104208;27;20559;-49
2022/06/16 11:17:22;;;;;;;2.23;1.90;;;25.30;49.70;;;;;;5114619;27;20530;-49
2022/06/16 11:20:06;;;;;;;1.47;1.37;;;25.30;50.30;;;;;;5077708;27;20548;-48
2022/06/16 11:22:50;;;;;;;2.43;1.80;;;25.30;50.20;;;;;;5087961;27;20520;-48
2022/06/16 11:25:38;;;;;;;2.10;1.90;;;25.30;50.60;;;;;;5052000;28;20602;-49
2022/06/16 11:28:22;;;;;;;1.60;1.50;;;25.30;50.40;;;;;;5087704;27;20566;-49
2022/06/16 11:31:08;;;;;;;3.00;1.77;;;25.30;50.70;;;;;;5066059;27;20544;-49
2022/06/16 11:34:13;;;;;;;1.90;1.60;;;25.30;50.00;;;;;;5083602;27;20601;-47
2022/06/16 11:37:13;;;;;;;2.17;1.97;;;25.30;49.80;;;;;;5082610;27;20530;-47
2022/06/16 11:40:04;;;;;;;3.53;1.63;;;25.30;50.00;;;;;;5090163;27;20586;-47
2022/06/16 11:42:58;;;;;;;2.07;1.60;;;25.30;49.20;;;;;;5128002;27;20574;-50
2022/06/16 11:45:45;;;;;;;1.80;1.70;;;25.40;49.50;;;;;;5079661;27;20935;-48
2022/06/16 11:48:35;;;;;;;2.20;1.53;;;25.40;50.00;;;;;;5100353;27;20583;-47
2022/06/16 11:51:25;;;;;;;3.07;1.73;;;25.40;50.60;;;;;;5070382;27;21013;-50
2022/06/16 11:54:24;;;;;;;2.00;1.43;;;25.40;51.10;;;;;;5103458;27;20536;-49
2022/06/16 11:57:13;;;;;;;1.77;1.47;;;25.40;51.20;;;;;;5083045;28;20535;-49
2022/06/16 12:00:20;;;;;;;2.60;1.70;;;25.40;51.00;;;;;;5053945;27;20530;-48
2022/06/16 12:03:55;;;;;;;4.07;1.93;;;25.40;50.70;;;;;;5085518;27;20559;-48
2022/06/16 12:06:54;;;;;;;1.63;1.43;;;25.40;50.80;;;;;;5084728;28;20532;-47
2022/06/16 12:09:41;;;;;;;1.83;1.73;;;25.40;50.40;;;;;;5077323;28;21119;-49
2022/06/16 12:12:26;;;;;;;1.73;1.50;;;25.40;50.70;;;;;;5135198;27;20525;-48
2022/06/16 12:15:23;;;;;;;1.70;1.60;;;25.40;50.30;;;;;;5058401;28;21082;-48
2022/06/16 12:18:13;;;;;;;2.00;1.90;;;25.40;50.80;;;;;;5102575;27;20849;-50
2022/06/16 12:21:03;;;;;;;1.80;1.70;;;25.40;51.00;;;;;;5073119;27;20600;-48
2022/06/16 12:23:52;;;;;;;2.60;1.80;;;25.40;50.30;;;;;;5105354;27;20611;-48
2022/06/16 12:26:39;;;;;;;1.50;1.40;;;25.40;49.70;;;;;;5068079;27;21011;-48
2022/06/16 12:29:26;;;;;;;2.30;1.60;;;25.40;50.20;;;;;;5080354;27;20593;-48
2022/06/16 12:32:20;;;;;;;2.63;2.20;;;25.40;50.60;;;;;;5115291;27;21111;-48
2022/06/16 12:35:09;;;;;;;1.50;1.40;;;25.50;49.60;;;;;;5089091;27;1247032;-48
2022/06/16 12:37:54;;;;;;;1.50;1.40;;;25.50;50.20;;;;;;5104751;27;21001;-47
2022/06/16 12:40:39;;;;;;;1.53;1.43;;;25.50;50.40;;;;;;5052881;28;20573;-47
2022/06/16 12:43:26;;;;;;;1.83;1.47;;;25.50;50.70;;;;;;5082439;28;20581;-47
2022/06/16 12:46:16;;;;;;;1.63;1.50;;;25.50;49.10;;;;;;5069577;27;20551;-48
2022/06/16 12:49:01;;;;;;;2.03;1.63;;;25.50;48.60;;;;;;5084958;27;20589;-48
2022/06/16 12:51:46;;;;;;;1.70;1.60;;;25.50;49.10;;;;;;5070866;28;20525;-49
2022/06/16 12:54:32;;;;;;;2.20;2.00;;;25.60;48.60;;;;;;5071610;27;20597;-47
2022/06/16 12:57:17;;;;;;;2.33;1.20;;;25.50;49.40;;;;;;5086307;27;20511;-47
2022/06/16 13:00:02;;;;;;;2.20;1.53;;;25.50;49.70;;;;;;5071965;27;20792;-49
2022/06/16 13:02:46;;;;;;;2.60;1.60;;;25.50;50.00;;;;;;5082121;27;20565;-47
2022/06/16 13:05:27;;;;;;;2.23;1.40;;;25.60;50.20;;;;;;5080731;28;20545;-48
2022/06/16 13:08:09;;;;;;;2.47;1.43;;;25.60;50.50;;;;;;5063795;28;20598;-47
2022/06/16 13:10:53;;;;;;;2.80;1.70;;;25.60;50.70;;;;;;5108183;27;20879;-47
2022/06/16 13:13:38;;;;;;;1.90;1.80;;;25.60;49.70;;;;;;5124733;27;20530;-49
2022/06/16 13:16:23;;;;;;;2.27;1.83;;;25.60;50.60;;;;;;5057892;27;21095;-47
2022/06/16 13:19:09;;;;;;;1.40;1.30;;;25.60;50.00;;;;;;5087444;28;20587;-48
2022/06/16 13:21:54;;;;;;;2.63;2.10;;;25.60;49.80;;;;;;5083728;27;20587;-49
2022/06/16 13:24:42;;;;;;;2.43;1.53;;;25.60;50.50;;;;;;5062308;28;21131;-48
2022/06/16 13:27:28;;;;;;;2.13;1.60;;;25.60;50.50;;;;;;5106419;27;20534;-48
2022/06/16 13:30:41;;;;;;;3.87;1.90;;;25.60;49.70;;;;;;5069613;27;20614;-47
2022/06/16 13:33:33;;;;;;;2.63;1.30;;;25.60;50.80;;;;;;5063562;28;21034;-47
2022/06/16 13:36:19;;;;;;;2.90;1.37;;;25.60;49.10;;;;;;5051197;27;20601;-49
2022/06/16 13:38:59;;;;;;;2.27;1.40;;;25.70;50.00;;;;;;5105904;27;20572;-49
2022/06/16 13:41:42;;;;;;;2.10;1.50;;;25.70;50.50;;;;;;5088826;27;21139;-49
2022/06/16 13:44:29;;;;;;;2.00;1.73;;;25.70;51.00;;;;;;5100430;27;20552;-48
2022/06/16 13:47:21;;;;;;;1.53;1.40;;;25.70;51.20;;;;;;5075917;28;20554;-47
2022/06/16 13:50:06;;;;;;;1.90;1.70;;;25.70;51.50;;;;;;5086120;27;20543;-48
2022/06/16 13:52:59;;;;;;;1.80;1.63;;;25.70;50.10;;;;;;5083274;27;20952;-48
2022/06/16 13:55:45;;;;;;;1.73;1.63;;;25.70;50.50;;;;;;5081711;27;20606;-48
2022/06/16 13:58:28;;;;;;;1.43;1.33;;;25.70;50.80;;;;;;5084408;27;20527;-47
2022/06/16 14:01:20;;;;;;;1.60;1.50;;;25.70;52.30;;;;;;5063723;27;20615;-47
2022/06/16 14:04:10;;;;;;;1.63;1.53;;;25.70;51.10;;;;;;5079727;27;20975;-48
2022/06/16 14:07:02;;;;;;;1.20;1.10;;;25.70;51.00;;;;;;5078327;28;20953;-48
2022/06/16 14:09:53;;;;;;;1.67;1.57;;;25.70;52.50;;;;;;5068791;28;21026;-49
2022/06/16 14:12:58;;;;;;;1.50;1.13;;;25.80;51.20;;;;;;5087891;28;21042;-48
2022/06/16 14:15:54;;;;;;;2.37;1.50;;;25.70;51.30;;;;;;5050164;28;20554;-48
2022/06/16 14:18:55;;;;;;;1.43;1.33;;;25.70;50.20;;;;;;5131621;27;20563;-46
2022/06/16 14:21:39;;;;;;;1.70;1.60;;;25.80;50.60;;;;;;5070561;28;20521;-48
2022/06/16 14:24:31;;;;;;;1.80;1.33;;;25.80;50.30;;;;;;5076616;28;20605;-48
2022/06/16 14:27:19;;;;;;;1.37;1.27;;;25.80;50.90;;;;;;5044155;28;20529;-46
2022/06/16 14:30:03;;;;;;;1.67;1.57;;;25.80;51.30;;;;;;5114382;27;20638;-47
2022/06/16 14:32:48;;;;;;;2.33;1.67;;;25.80;51.30;;;;;;5108419;27;20515;-48
2022/06/16 14:35:34;;;;;;;1.63;1.40;;;25.80;51.40;;;;;;5057060;27;20554;-49
2022/06/16 14:38:19;;;;;;;1.30;1.20;;;25.80;51.50;;;;;;5106914;27;20588;-49
2022/06/16 14:41:04;;;;;;;1.67;1.53;;;25.80;51.70;;;;;;5089505;27;21133;-46
2022/06/16 14:43:50;;;;;;;1.60;1.50;;;25.80;51.60;;;;;;5082494;27;20595;-49
2022/06/16 14:46:36;;;;;;;2.13;1.60;;;25.90;51.50;;;;;;5086010;27;21026;-47
2022/06/16 14:49:28;;;;;;;1.67;1.57;;;25.90;51.20;;;;;;5085584;27;20516;-48
2022/06/16 14:52:10;;;;;;;2.60;1.53;;;25.90;51.60;;;;;;5113464;27;20568;-48
2022/06/16 14:54:55;;;;;;;1.80;1.57;;;25.90;51.00;;;;;;5064616;28;20961;-48